createdAt,value
2023-03-23T00:27:20.545Z,13.59
2023-03-23T00:41:34.225Z,13.65
2023-03-23T00:55:45.716Z,13.66
2023-03-23T01:09:59.066Z,13.67
2023-03-23T01:24:13.398Z,13.74
2023-03-23T01:38:24.811Z,13.82
2023-03-23T01:52:37.407Z,13.73
2023-03-23T02:06:49.692Z,13.64
2023-03-23T02:21:02.456Z,13.56
2023-03-23T02:35:18.153Z,13.47
2023-03-23T02:49:25.154Z,13.16
2023-03-23T03:03:40.076Z,13.06
2023-03-23T03:17:49.907Z,13
2023-03-23T03:32:00.660Z,12.98
2023-03-23T03:46:12.649Z,12.74
2023-03-23T04:00:27.116Z,12.57
2023-03-23T04:14:36.818Z,12.44
2023-03-23T04:28:46.557Z,12.58
2023-03-23T04:42:59.316Z,12.68
2023-03-23T04:57:13.255Z,12.71
2023-03-23T05:11:22.319Z,12.74
2023-03-23T05:25:34.659Z,12.6
2023-03-23T05:39:48.668Z,12.5
2023-03-23T05:53:57.199Z,12.35
2023-03-23T06:08:09.909Z,12.24
2023-03-23T06:22:22.533Z,12.3
2023-03-23T06:36:35.559Z,12.39
2023-03-23T06:50:49.142Z,12.54
2023-03-23T07:05:02.052Z,12.85
2023-03-23T07:19:15.606Z,12.90
2023-03-23T07:23:04.238Z,12.83
2023-03-23T07:32:36.979Z,12.79
2023-03-23T07:42:11.526Z,12.89
2023-03-23T07:47:42.052Z,12.93
2023-03-23T07:51:47.591Z,13.07
2023-03-23T08:01:20.269Z,13.08
2023-03-23T08:01:56.052Z,13.16
2023-03-23T08:10:56.595Z,13.22
2023-03-23T08:20:30.520Z,13.18
2023-03-23T08:30:02.731Z,13.20
2023-03-23T08:40:41.107Z,13.33
2023-03-23T08:41:43.501Z,13.38
2023-03-23T08:42:52.441Z,13.44
2023-03-23T08:43:49.949Z,13.48
2023-03-23T08:44:36.780Z,13.50
2023-03-23T08:44:52.387Z,13.54
2023-03-23T08:45:54.792Z,13.58
2023-03-23T08:46:57.266Z,13.60
2023-03-23T08:48:01.344Z,13.62
2023-03-23T08:58:51.443Z,13.92
2023-03-23T09:07:00.748Z,13.98
2023-03-23T09:08:04.909Z,14.01
2023-03-23T09:09:07.264Z,14.07
2023-03-23T09:10:09.828Z,14.11
2023-03-23T09:11:13.859Z,14.15
2023-03-23T09:12:16.220Z,14.22
2023-03-23T09:13:20.355Z,14.28
2023-03-23T09:14:22.676Z,14.33
2023-03-23T09:15:32.169Z,14.34
2023-03-23T09:16:28.590Z,14.35
2023-03-23T09:17:30.931Z,14.40
2023-03-23T09:18:34.982Z,14.45
2023-03-23T09:20:41.316Z,14.52
2023-03-23T09:21:43.792Z,14.50
2023-03-23T09:23:50.524Z,14.53
2023-03-23T09:24:52.865Z,14.55
2023-03-23T09:26:59.431Z,14.58
2023-03-23T09:28:05.602Z,14.57
2023-03-23T09:29:08.797Z,14.61
2023-03-23T09:30:11.177Z,14.63
2023-03-23T09:31:13.659Z,14.65
2023-03-23T09:32:16.163Z,14.64
2023-03-23T09:33:18.637Z,14.65
2023-03-23T09:34:23.756Z,14.69
2023-03-23T09:35:26.045Z,14.73
2023-03-23T09:36:28.571Z,14.78
2023-03-23T09:37:32.025Z,14.80
2023-03-23T09:38:34.335Z,14.78
2023-03-23T09:39:36.822Z,14.83
2023-03-23T09:40:39.533Z,14.77
2023-03-23T09:41:41.822Z,14.80
2023-03-23T09:42:45.824Z,14.82
2023-03-23T09:44:52.078Z,14.83
2023-03-23T09:45:54.481Z,14.80
2023-03-23T09:46:58.541Z,14.78
2023-03-23T09:48:00.883Z,14.76
2023-03-23T09:50:06.836Z,14.74
2023-03-23T09:51:09.154Z,14.70
2023-03-23T09:52:11.659Z,14.65
2023-03-23T09:53:15.755Z,14.67
2023-03-23T09:54:18.061Z,14.57
2023-03-23T09:55:20.546Z,14.58
2023-03-23T09:56:22.989Z,14.52
2023-03-23T09:57:25.459Z,14.47
2023-03-23T09:58:29.478Z,14.43
2023-03-23T09:59:33.412Z,14.40
2023-03-23T10:00:36.775Z,14.37
2023-03-23T10:02:43.000Z,14.39
2023-03-23T10:03:45.576Z,14.38
2023-03-23T10:04:48.034Z,14.31
2023-03-23T10:05:52.299Z,14.28
2023-03-23T10:08:00.154Z,14.30
2023-03-23T10:09:04.257Z,14.27
2023-03-23T10:10:06.563Z,14.23
2023-03-23T10:11:10.595Z,14.21
2023-03-23T10:12:13.910Z,14.23
2023-03-23T10:13:16.295Z,14.22
2023-03-23T10:15:21.225Z,14.18
2023-03-23T10:16:23.652Z,14.20
2023-03-23T10:17:26.113Z,14.18
2023-03-23T10:18:28.569Z,14.16
2023-03-23T10:20:34.986Z,14.12
2023-03-23T10:21:37.356Z,14.16
2023-03-23T10:22:39.896Z,14.15
2023-03-23T10:23:42.316Z,14.18
2023-03-23T10:25:48.810Z,14.14
2023-03-23T10:26:52.725Z,14.11
2023-03-23T10:27:56.713Z,14.12
2023-03-23T10:28:58.903Z,14.10
2023-03-23T10:30:01.393Z,14.12
2023-03-23T10:31:03.857Z,14.07
2023-03-23T10:33:08.819Z,14.09
2023-03-23T10:34:11.299Z,14.05
2023-03-23T10:35:15.363Z,14.06
2023-03-23T10:37:21.796Z,14.08
2023-03-23T10:38:25.778Z,14.13
2023-03-23T10:39:29.726Z,14.15
2023-03-23T10:40:33.551Z,14.22
2023-03-23T10:41:37.572Z,14.27
2023-03-23T10:42:39.852Z,14.30
2023-03-23T10:44:46.400Z,14.35
2023-03-23T10:46:00.093Z,14.38
2023-03-23T10:46:52.659Z,14.39
2023-03-23T10:47:55.098Z,14.44
2023-03-23T10:48:59.194Z,14.46
2023-03-23T10:50:01.603Z,14.50
2023-03-23T10:51:04.038Z,14.55
2023-03-23T10:52:06.548Z,14.61
2023-03-23T10:53:09.004Z,14.64
2023-03-23T10:54:11.548Z,14.63
2023-03-23T10:55:13.997Z,14.67
2023-03-23T10:56:18.119Z,14.74
2023-03-23T10:57:20.457Z,14.71
2023-03-23T10:58:22.969Z,14.76
2023-03-23T10:59:25.487Z,14.78
2023-03-23T11:00:27.770Z,14.80
2023-03-23T11:01:30.368Z,14.83
2023-03-23T11:02:32.808Z,14.85
2023-03-23T11:03:35.292Z,14.83
2023-03-23T11:05:42.017Z,14.81
2023-03-23T11:06:44.108Z,14.80
2023-03-23T11:07:48.164Z,14.78
2023-03-23T11:08:50.537Z,14.75
2023-03-23T11:09:54.556Z,14.78
2023-03-23T11:10:56.852Z,14.81
2023-03-23T11:12:02.199Z,14.75
2023-03-23T11:13:03.374Z,14.79
2023-03-23T11:15:09.666Z,14.77
2023-03-23T11:16:12.137Z,14.75
2023-03-23T11:17:16.081Z,14.68
2023-03-23T11:18:17.082Z,14.64
2023-03-23T11:19:21.182Z,14.63
2023-03-23T11:20:23.509Z,14.61
2023-03-23T11:21:25.959Z,14.60
2023-03-23T11:22:30.023Z,14.59
2023-03-23T11:23:32.299Z,14.57
2023-03-23T11:25:37.271Z,14.59
2023-03-23T11:27:42.295Z,14.57
2023-03-23T11:28:44.757Z,14.55
2023-03-23T11:29:51.973Z,14.50
2023-03-23T11:30:49.701Z,14.49
2023-03-23T11:31:52.071Z,14.51
2023-03-23T11:32:56.183Z,14.53
2023-03-23T11:34:05.737Z,14.49
2023-03-23T11:35:10.433Z,14.45
2023-03-23T11:36:03.471Z,14.44
2023-03-23T11:37:05.968Z,14.43
2023-03-23T11:38:08.521Z,14.36
2023-03-23T11:39:12.494Z,14.35
2023-03-23T11:40:14.883Z,14.34
2023-03-23T11:41:17.331Z,14.36
2023-03-23T11:42:19.721Z,14.34
2023-03-23T11:43:22.274Z,14.40
2023-03-23T11:44:24.793Z,14.41
2023-03-23T11:45:27.275Z,14.34
2023-03-23T11:46:29.728Z,14.29
2023-03-23T11:47:32.102Z,14.26
2023-03-23T11:48:36.286Z,14.28
2023-03-23T11:49:38.604Z,14.24
2023-03-23T11:50:42.645Z,14.21
2023-03-23T11:51:46.632Z,14.22
2023-03-23T11:52:48.907Z,14.23
2023-03-23T11:53:51.346Z,14.25
2023-03-23T11:55:59.342Z,14.27
2023-03-23T11:57:01.617Z,14.32
2023-03-23T11:59:06.543Z,14.33
2023-03-23T12:00:09.041Z,14.37
2023-03-23T12:01:13.132Z,14.39
2023-03-23T12:02:17.243Z,14.40
2023-03-23T12:03:19.508Z,14.41
2023-03-23T12:04:21.817Z,14.40
2023-03-23T12:05:25.865Z,14.41
2023-03-23T12:06:29.797Z,14.42
2023-03-23T12:08:34.677Z,14.43
2023-03-23T12:09:37.010Z,14.41
2023-03-23T12:10:45.854Z,14.37
2023-03-23T12:11:42.822Z,14.39
2023-03-23T12:12:45.331Z,14.38
2023-03-23T12:14:50.281Z,14.34
2023-03-23T12:15:54.285Z,14.37
2023-03-23T12:16:58.188Z,14.36
2023-03-23T12:19:03.075Z,14.38
2023-03-23T12:20:07.304Z,14.34
2023-03-23T12:21:09.824Z,14.33
2023-03-23T12:22:12.106Z,14.25
2023-03-23T12:23:14.577Z,14.29
2023-03-23T12:24:18.632Z,14.28
2023-03-23T12:25:20.991Z,14.29
2023-03-23T12:26:25.065Z,14.31
2023-03-23T12:27:29.051Z,14.34
2023-03-23T12:29:35.453Z,14.40
2023-03-23T12:30:37.812Z,14.44
2023-03-23T12:31:40.288Z,14.49
2023-03-23T12:32:44.333Z,14.55
2023-03-23T12:33:46.712Z,14.61
2023-03-23T12:34:49.203Z,14.68
2023-03-23T12:35:51.645Z,14.76
2023-03-23T12:36:55.628Z,14.85
2023-03-23T12:37:59.625Z,14.94
2023-03-23T12:39:01.945Z,15.07
2023-03-23T12:40:04.485Z,15.11
2023-03-23T12:41:06.926Z,15.14
2023-03-23T12:42:11.007Z,15.21
2023-03-23T12:43:13.362Z,15.22
2023-03-23T12:45:21.376Z,15.24
2023-03-23T12:46:25.326Z,15.22
2023-03-23T12:47:28.657Z,15.20
2023-03-23T12:48:31.110Z,15.18
2023-03-23T12:50:38.665Z,15.17
2023-03-23T12:51:40.910Z,15.19
2023-03-23T12:52:44.381Z,15.20
2023-03-23T12:53:48.382Z,15.24
2023-03-23T12:54:50.750Z,15.27
2023-03-23T12:55:53.272Z,15.33
2023-03-23T12:56:55.765Z,15.32
2023-03-23T12:57:58.259Z,15.34
2023-03-23T13:00:04.763Z,15.37
2023-03-23T13:01:07.154Z,15.38
2023-03-23T13:02:11.165Z,15.41
2023-03-23T13:04:17.519Z,15.46
2023-03-23T13:05:21.580Z,15.48
2023-03-23T13:07:27.958Z,15.49
2023-03-23T13:08:30.303Z,15.50
2023-03-23T13:09:32.730Z,15.51
2023-03-23T13:11:39.280Z,15.47
2023-03-23T13:12:41.665Z,15.45
2023-03-23T13:14:46.600Z,15.37
2023-03-23T13:15:50.730Z,15.39
2023-03-23T13:16:53.107Z,15.33
2023-03-23T13:17:55.536Z,15.28
2023-03-23T13:18:58.039Z,15.26
2023-03-23T13:20:00.595Z,15.25
2023-03-23T13:21:03.047Z,15.24
2023-03-23T13:22:07.178Z,15.18
2023-03-23T13:23:09.598Z,15.15
2023-03-23T13:24:12.062Z,15.12
2023-03-23T13:25:14.557Z,15.09
2023-03-23T13:26:17.033Z,15.07
2023-03-23T13:27:19.508Z,15.03
2023-03-23T13:28:21.998Z,15.02
2023-03-23T13:29:24.505Z,15.01
2023-03-23T13:30:27.961Z,15.00
2023-03-23T13:31:31.959Z,14.96
2023-03-23T13:32:34.522Z,14.93
2023-03-23T13:33:36.708Z,14.90
2023-03-23T13:34:39.185Z,14.87
2023-03-23T13:35:41.618Z,14.84
2023-03-23T13:36:45.759Z,14.82
2023-03-23T13:37:48.056Z,14.78
2023-03-23T13:38:50.457Z,14.79
2023-03-23T13:39:54.436Z,14.80
2023-03-23T13:40:58.508Z,14.87
2023-03-23T13:42:00.832Z,14.93
2023-03-23T13:43:03.236Z,15.04
2023-03-23T13:44:05.733Z,15.12
2023-03-23T13:45:09.849Z,15.22
2023-03-23T13:46:12.216Z,15.33
2023-03-23T13:47:14.674Z,15.39
2023-03-23T13:48:17.205Z,15.45
2023-03-23T13:49:19.686Z,15.49
2023-03-23T13:50:23.828Z,15.51
2023-03-23T13:51:27.725Z,15.52
2023-03-23T13:52:31.640Z,15.53
2023-03-23T13:57:35.766Z,15.54
2023-03-23T13:58:51.844Z,15.52
2023-03-23T13:59:55.793Z,15.49
2023-03-23T14:00:58.164Z,15.47
2023-03-23T14:02:03.266Z,15.46
2023-03-23T14:03:06.530Z,15.43
2023-03-23T14:04:08.947Z,15.39
2023-03-23T14:05:11.330Z,15.30
2023-03-23T14:06:13.819Z,15.27
2023-03-23T14:07:16.238Z,15.25
2023-03-23T14:08:20.380Z,15.17
2023-03-23T14:09:22.662Z,15.10
2023-03-23T14:10:26.665Z,15.04
2023-03-23T14:11:29.040Z,15.06
2023-03-23T14:12:31.487Z,15.03
2023-03-23T14:13:33.957Z,15.00
2023-03-23T14:14:38.023Z,14.98
2023-03-23T14:15:40.410Z,14.96
2023-03-23T14:16:44.403Z,14.95
2023-03-23T14:18:50.762Z,14.94
2023-03-23T14:19:53.257Z,14.95
2023-03-23T14:21:59.738Z,14.97
2023-03-23T14:23:02.155Z,14.94
2023-03-23T14:24:06.200Z,14.93
2023-03-23T14:25:08.606Z,14.95
2023-03-23T14:26:12.649Z,14.96
2023-03-23T14:27:15.108Z,14.97
2023-03-23T14:29:21.197Z,14.98
2023-03-23T14:30:23.530Z,14.96
2023-03-23T14:31:27.538Z,14.97
2023-03-23T14:32:29.919Z,14.99
2023-03-23T14:33:34.014Z,15.02
2023-03-23T14:34:37.364Z,15.00
2023-03-23T14:35:41.437Z,15.05
2023-03-23T14:37:46.065Z,15.06
2023-03-23T14:38:48.529Z,15.05
2023-03-23T14:39:51.009Z,15.04
2023-03-23T14:40:53.493Z,15.07
2023-03-23T14:41:55.984Z,15.10
2023-03-23T14:42:58.423Z,15.08
2023-03-23T14:44:00.940Z,15.03
2023-03-23T14:45:03.384Z,15.01
2023-03-23T14:46:05.768Z,15.06
2023-03-23T14:47:09.904Z,15.08
2023-03-23T14:48:13.938Z,15.09
2023-03-23T14:49:16.251Z,15.13
2023-03-23T14:50:18.720Z,15.10
2023-03-23T14:51:22.801Z,15.13
2023-03-23T14:52:25.133Z,15.15
2023-03-23T14:53:29.170Z,15.14
2023-03-23T14:54:31.472Z,15.17
2023-03-23T14:55:33.907Z,15.16
2023-03-23T14:56:36.391Z,15.18
2023-03-23T14:57:40.540Z,15.20
2023-03-23T14:58:42.854Z,15.18
2023-03-23T14:59:45.272Z,15.19
2023-03-23T15:00:49.340Z,15.17
2023-03-23T15:02:55.780Z,15.16
2023-03-23T15:03:58.048Z,15.19
2023-03-23T15:05:00.529Z,15.21
2023-03-23T15:06:02.979Z,15.20
2023-03-23T15:07:05.470Z,15.19
2023-03-23T15:08:07.933Z,15.20
2023-03-23T15:11:19.233Z,15.23
2023-03-23T15:12:21.612Z,15.21
2023-03-23T15:14:26.561Z,15.20
2023-03-23T15:17:35.498Z,15.19
2023-03-23T15:18:39.573Z,15.18
2023-03-23T15:19:41.990Z,15.17
2023-03-23T15:20:44.393Z,15.18
2023-03-23T15:21:50.802Z,15.15
2023-03-23T15:23:57.875Z,15.16
2023-03-23T15:25:00.305Z,15.14
2023-03-23T15:26:02.689Z,15.11
2023-03-23T15:27:06.785Z,15.10
2023-03-23T15:28:10.776Z,15.08
2023-03-23T15:29:13.079Z,15.06
2023-03-23T15:30:17.092Z,15.05
2023-03-23T15:37:11.744Z,14.86
2023-03-23T15:39:47.456Z,14.46
2023-03-23T15:40:49.986Z,14.45
2023-03-23T15:41:52.461Z,14.42
2023-03-23T15:42:56.432Z,14.38
2023-03-23T15:43:58.869Z,14.36
2023-03-23T15:46:04.833Z,14.32
2023-03-23T15:47:08.786Z,14.31
2023-03-23T15:48:11.106Z,14.28
2023-03-23T15:49:13.492Z,14.26
2023-03-23T15:50:17.612Z,14.19
2023-03-23T15:51:11.876Z,14.08
2023-03-23T16:00:43.547Z,14.07
2023-03-23T16:01:46.043Z,14.08
2023-03-23T16:02:50.167Z,14.08
2023-03-23T16:03:52.419Z,14.07
2023-03-23T16:04:56.478Z,14.05
2023-03-23T16:05:58.847Z,14.01
2023-03-23T16:08:09.009Z,14.03
2023-03-23T16:10:13.958Z,14.01
2023-03-23T16:11:16.365Z,13.98
2023-03-23T16:12:20.376Z,13.96
2023-03-23T16:14:27.712Z,13.94
2023-03-23T16:15:31.636Z,13.96
2023-03-23T16:16:34.014Z,13.97
2023-03-23T16:17:36.479Z,13.95
2023-03-23T16:18:38.942Z,13.97
2023-03-23T16:19:39.419Z,13.92
2023-03-23T16:33:52.871Z,13.85
2023-03-23T16:47:08.759Z,13.71
2023-03-23T16:48:01.360Z,13.56
2023-03-23T17:02:14.149Z,13.41
2023-03-23T17:16:27.241Z,13.25
2023-03-23T17:30:39.659Z,12.89
2023-03-23T17:44:51.603Z,12.49
2023-03-23T17:59:03.624Z,12.09
2023-03-23T18:13:15.381Z,11.95
2023-03-23T18:27:29.244Z,12.16
2023-03-23T18:41:42.204Z,12.23
2023-03-23T18:55:58.507Z,12.5
2023-03-23T19:10:07.976Z,12.69
2023-03-23T19:24:20.815Z,12.77
2023-03-23T19:38:36.375Z,12.82
2023-03-23T20:06:57.132Z,12.8
2023-03-23T20:21:08.895Z,12.65
2023-03-23T20:35:21.830Z,12.39
2023-03-23T21:03:46.604Z,12.46
2023-03-23T21:17:59.284Z,12.58
2023-03-23T21:32:13.590Z,12.73
2023-03-23T21:46:25.539Z,12.95
2023-03-23T22:00:38.416Z,12.91
2023-03-23T22:14:52.015Z,12.92
2023-03-23T22:29:02.706Z,12.96
2023-03-23T22:43:14.984Z,12.95
2023-03-23T22:57:28.055Z,12.91
2023-03-23T23:11:42.220Z,12.86
2023-03-23T23:25:52.810Z,12.72
2023-03-23T23:40:06.197Z,12.66
2023-03-23T23:54:18.614Z,12.65
